sensor_id;sensor_type;location;lat;lon;timestamp;pressure;altitude;pressure_sealevel;temperature;humidity
1371;BME280;14306;49.942;11.570;2022-12-20T00:01:32;98268.78;;;1.14;86.01
1371;BME280;14306;49.942;11.570;2022-12-20T00:04:03;98264.97;;;0.92;86.60
1371;BME280;14306;49.942;11.570;2022-12-20T00:06:33;98268.34;;;0.99;86.08
1371;BME280;14306;49.942;11.570;2022-12-20T00:09:06;98274.38;;;0.95;86.24
1371;BME280;14306;49.942;11.570;2022-12-20T00:11:35;98268.22;;;0.94;86.55
1371;BME280;14306;49.942;11.570;2022-12-20T00:14:06;98268.66;;;0.91;86.42
1371;BME280;14306;49.942;11.570;2022-12-20T00:16:35;98268.66;;;0.91;86.95
1371;BME280;14306;49.942;11.570;2022-12-20T00:19:05;98265.91;;;0.80;86.98
1371;BME280;14306;49.942;11.570;2022-12-20T00:21:34;98268.06;;;0.89;86.88
1371;BME280;14306;49.942;11.570;2022-12-20T00:24:05;98262.81;;;0.83;86.89
1371;BME280;14306;49.942;11.570;2022-12-20T00:26:34;98264.59;;;1.07;87.11
1371;BME280;14306;49.942;11.570;2022-12-20T00:29:04;98261.78;;;1.02;86.97
1371;BME280;14306;49.942;11.570;2022-12-20T00:31:33;98272.06;;;0.98;86.31
1371;BME280;14306;49.942;11.570;2022-12-20T00:34:02;98284.00;;;1.14;85.05
1371;BME280;14306;49.942;11.570;2022-12-20T00:36:31;98270.66;;;1.14;86.26
1371;BME280;14306;49.942;11.570;2022-12-20T00:39:00;98266.50;;;1.00;85.80
1371;BME280;14306;49.942;11.570;2022-12-20T00:41:31;98258.44;;;1.06;86.00
1371;BME280;14306;49.942;11.570;2022-12-20T00:44:00;98248.38;;;0.90;86.77
1371;BME280;14306;49.942;11.570;2022-12-20T00:46:29;98255.19;;;1.04;86.60
1371;BME280;14306;49.942;11.570;2022-12-20T00:48:59;98245.31;;;1.05;86.44
1371;BME280;14306;49.942;11.570;2022-12-20T00:51:28;98233.84;;;1.04;86.98
1371;BME280;14306;49.942;11.570;2022-12-20T00:53:58;98240.81;;;1.23;86.45
1371;BME280;14306;49.942;11.570;2022-12-20T00:56:26;98272.72;;;1.30;86.83
1371;BME280;14306;49.942;11.570;2022-12-20T00:58:57;98273.16;;;1.45;86.56
1371;BME280;14306;49.942;11.570;2022-12-20T01:01:28;98272.59;;;1.25;86.70
1371;BME280;14306;49.942;11.570;2022-12-20T01:03:57;98264.34;;;1.26;87.02
1371;BME280;14306;49.942;11.570;2022-12-20T01:06:26;98268.34;;;1.35;87.00
1371;BME280;14306;49.942;11.570;2022-12-20T01:08:56;98266.03;;;1.39;86.93
1371;BME280;14306;49.942;11.570;2022-12-20T01:11:26;98272.72;;;1.30;87.22
1371;BME280;14306;49.942;11.570;2022-12-20T01:14:01;98270.72;;;1.43;86.73
1371;BME280;14306;49.942;11.570;2022-12-20T01:16:31;98270.69;;;1.61;85.75
1371;BME280;14306;49.942;11.570;2022-12-20T01:19:00;98256.09;;;1.46;85.96
1371;BME280;14306;49.942;11.570;2022-12-20T01:21:28;98255.78;;;1.54;86.61
1371;BME280;14306;49.942;11.570;2022-12-20T01:23:57;98246.03;;;1.48;86.57
1371;BME280;14306;49.942;11.570;2022-12-20T01:26:27;98249.72;;;1.47;86.42
1371;BME280;14306;49.942;11.570;2022-12-20T01:28:59;98245.09;;;1.54;86.36
1371;BME280;14306;49.942;11.570;2022-12-20T01:31:28;98244.00;;;1.61;85.68
1371;BME280;14306;49.942;11.570;2022-12-20T01:33:58;98249.81;;;1.70;85.78
1371;BME280;14306;49.942;11.570;2022-12-20T01:36:29;98247.88;;;1.47;86.08
1371;BME280;14306;49.942;11.570;2022-12-20T01:38:59;98256.19;;;1.39;86.28
1371;BME280;14306;49.942;11.570;2022-12-20T01:41:28;98255.66;;;1.49;86.38
1371;BME280;14306;49.942;11.570;2022-12-20T01:44:00;98254.38;;;1.51;86.22
1371;BME280;14306;49.942;11.570;2022-12-20T01:46:30;98237.28;;;1.41;86.05
1371;BME280;14306;49.942;11.570;2022-12-20T01:49:02;98236.34;;;1.17;87.11
1371;BME280;14306;49.942;11.570;2022-12-20T01:51:35;98220.47;;;1.22;87.11
1371;BME280;14306;49.942;11.570;2022-12-20T01:54:07;98218.63;;;1.41;86.88
1371;BME280;14306;49.942;11.570;2022-12-20T01:56:37;98212.09;;;1.37;86.64
1371;BME280;14306;49.942;11.570;2022-12-20T01:59:09;98205.13;;;1.36;86.30
1371;BME280;14306;49.942;11.570;2022-12-20T02:01:40;98201.91;;;1.45;86.22
1371;BME280;14306;49.942;11.570;2022-12-20T02:04:09;98205.91;;;1.54;86.90
1371;BME280;14306;49.942;11.570;2022-12-20T02:06:37;98215.88;;;1.59;85.99
1371;BME280;14306;49.942;11.570;2022-12-20T02:09:05;98208.13;;;1.57;86.61
1371;BME280;14306;49.942;11.570;2022-12-20T02:11:50;98206.75;;;1.66;85.97
1371;BME280;14306;49.942;11.570;2022-12-20T02:14:35;98198.44;;;1.45;86.50
1371;BME280;14306;49.942;11.570;2022-12-20T02:17:11;98206.81;;;1.48;87.00
1371;BME280;14306;49.942;11.570;2022-12-20T02:20:00;98187.50;;;1.35;87.07
1371;BME280;14306;49.942;11.570;2022-12-20T02:22:45;98196.00;;;1.43;87.16
1371;BME280;14306;49.942;11.570;2022-12-20T02:25:37;98217.13;;;1.45;87.03
1371;BME280;14306;49.942;11.570;2022-12-20T02:28:21;98231.50;;;1.44;86.84
1371;BME280;14306;49.942;11.570;2022-12-20T02:30:56;98238.34;;;1.69;86.70
1371;BME280;14306;49.942;11.570;2022-12-20T02:33:27;98226.94;;;1.62;85.89
1371;BME280;14306;49.942;11.570;2022-12-20T02:35:55;98214.91;;;1.42;86.75
1371;BME280;14306;49.942;11.570;2022-12-20T02:38:27;98211.81;;;1.56;87.58
1371;BME280;14306;49.942;11.570;2022-12-20T02:40:57;98211.66;;;1.40;87.83
1371;BME280;14306;49.942;11.570;2022-12-20T02:43:29;98199.66;;;1.31;88.22
1371;BME280;14306;49.942;11.570;2022-12-20T02:46:19;98193.63;;;1.53;87.67
1371;BME280;14306;49.942;11.570;2022-12-20T02:48:50;98207.31;;;1.57;87.40
1371;BME280;14306;49.942;11.570;2022-12-20T02:51:20;98195.69;;;1.51;88.26
1371;BME280;14306;49.942;11.570;2022-12-20T02:53:50;98165.44;;;1.57;88.36
1371;BME280;14306;49.942;11.570;2022-12-20T02:56:21;98175.06;;;1.58;87.28
1371;BME280;14306;49.942;11.570;2022-12-20T02:58:54;98166.22;;;1.46;88.20
1371;BME280;14306;49.942;11.570;2022-12-20T03:01:29;98158.97;;;1.35;88.61
1371;BME280;14306;49.942;11.570;2022-12-20T03:03:59;98158.66;;;1.43;88.42
1371;BME280;14306;49.942;11.570;2022-12-20T03:06:28;98160.81;;;1.35;88.35
1371;BME280;14306;49.942;11.570;2022-12-20T03:08:56;98151.09;;;1.40;88.62
1371;BME280;14306;49.942;11.570;2022-12-20T03:11:25;98135.69;;;1.42;88.44
1371;BME280;14306;49.942;11.570;2022-12-20T03:13:53;98137.66;;;1.47;88.10
1371;BME280;14306;49.942;11.570;2022-12-20T03:16:21;98145.97;;;1.80;88.61
1371;BME280;14306;49.942;11.570;2022-12-20T03:18:50;98139.59;;;1.69;88.73
1371;BME280;14306;49.942;11.570;2022-12-20T03:21:19;98125.78;;;1.84;88.01
1371;BME280;14306;49.942;11.570;2022-12-20T03:23:47;98110.09;;;1.87;88.03
1371;BME280;14306;49.942;11.570;2022-12-20T03:26:15;98115.09;;;2.41;87.00
1371;BME280;14306;49.942;11.570;2022-12-20T03:28:43;98120.91;;;2.04;87.94
1371;BME280;14306;49.942;11.570;2022-12-20T03:31:11;98121.03;;;2.09;88.46
1371;BME280;14306;49.942;11.570;2022-12-20T03:33:39;98142.06;;;2.17;87.88
1371;BME280;14306;49.942;11.570;2022-12-20T03:36:09;98163.31;;;2.00;87.49
1371;BME280;14306;49.942;11.570;2022-12-20T03:38:37;98170.69;;;1.75;87.77
1371;BME280;14306;49.942;11.570;2022-12-20T03:41:05;98163.28;;;1.89;87.44
1371;BME280;14306;49.942;11.570;2022-12-20T03:43:33;98179.22;;;1.95;86.91
1371;BME280;14306;49.942;11.570;2022-12-20T03:46:02;98184.63;;;1.77;87.65
1371;BME280;14306;49.942;11.570;2022-12-20T03:48:30;98171.06;;;1.79;87.17
1371;BME280;14306;49.942;11.570;2022-12-20T03:50:59;98169.50;;;1.60;87.57
1371;BME280;14306;49.942;11.570;2022-12-20T03:53:28;98179.97;;;1.73;88.43
1371;BME280;14306;49.942;11.570;2022-12-20T03:55:56;98173.44;;;1.57;88.59
1371;BME280;14306;49.942;11.570;2022-12-20T03:58:25;98185.34;;;1.84;87.29
1371;BME280;14306;49.942;11.570;2022-12-20T04:00:53;98171.16;;;1.72;88.54
1371;BME280;14306;49.942;11.570;2022-12-20T04:03:22;98178.34;;;1.72;88.18
1371;BME280;14306;49.942;11.570;2022-12-20T04:05:51;98156.38;;;1.58;87.96
1371;BME280;14306;49.942;11.570;2022-12-20T04:08:19;98181.13;;;1.77;87.77
1371;BME280;14306;49.942;11.570;2022-12-20T04:10:49;98178.44;;;1.65;88.49
1371;BME280;14306;49.942;11.570;2022-12-20T04:13:34;98179.03;;;1.67;88.37
1371;BME280;14306;49.942;11.570;2022-12-20T04:16:03;98169.06;;;1.74;88.34
1371;BME280;14306;49.942;11.570;2022-12-20T04:18:31;98164.31;;;1.76;88.33
1371;BME280;14306;49.942;11.570;2022-12-20T04:21:00;98160.09;;;1.69;88.52
1371;BME280;14306;49.942;11.570;2022-12-20T04:23:28;98157.31;;;1.75;89.12
1371;BME280;14306;49.942;11.570;2022-12-20T04:25:58;98143.19;;;1.75;89.14
1371;BME280;14306;49.942;11.570;2022-12-20T04:28:26;98133.78;;;1.72;88.89
1371;BME280;14306;49.942;11.570;2022-12-20T04:30:54;98134.34;;;1.74;88.79
1371;BME280;14306;49.942;11.570;2022-12-20T04:33:23;98125.06;;;1.77;89.04
1371;BME280;14306;49.942;11.570;2022-12-20T04:35:52;98111.16;;;1.86;88.95
1371;BME280;14306;49.942;11.570;2022-12-20T04:38:21;98111.72;;;1.77;88.99
1371;BME280;14306;49.942;11.570;2022-12-20T04:40:51;98108.94;;;1.83;88.95
1371;BME280;14306;49.942;11.570;2022-12-20T04:43:22;98106.75;;;1.80;89.59
1371;BME280;14306;49.942;11.570;2022-12-20T04:45:52;98117.66;;;1.79;89.21
1371;BME280;14306;49.942;11.570;2022-12-20T04:48:22;98115.94;;;1.84;89.33
1371;BME280;14306;49.942;11.570;2022-12-20T04:51:13;98116.13;;;1.71;89.36
1371;BME280;14306;49.942;11.570;2022-12-20T04:53:41;98110.00;;;1.82;89.84
1371;BME280;14306;49.942;11.570;2022-12-20T04:56:16;98132.03;;;1.78;90.04
1371;BME280;14306;49.942;11.570;2022-12-20T04:58:48;98123.78;;;1.79;90.47
1371;BME280;14306;49.942;11.570;2022-12-20T05:01:17;98112.09;;;1.80;90.14
1371;BME280;14306;49.942;11.570;2022-12-20T05:03:46;98095.81;;;1.70;90.26
1371;BME280;14306;49.942;11.570;2022-12-20T05:06:15;98080.41;;;1.84;90.50
1371;BME280;14306;49.942;11.570;2022-12-20T05:08:43;98095.59;;;1.83;90.41
1371;BME280;14306;49.942;11.570;2022-12-20T05:11:12;98077.84;;;1.77;90.64
1371;BME280;14306;49.942;11.570;2022-12-20T05:13:40;98093.97;;;1.82;90.79
1371;BME280;14306;49.942;11.570;2022-12-20T05:16:13;98069.38;;;1.80;89.97
1371;BME280;14306;49.942;11.570;2022-12-20T05:18:41;98092.56;;;1.91;89.86
1371;BME280;14306;49.942;11.570;2022-12-20T05:21:17;98111.88;;;2.05;89.83
1371;BME280;14306;49.942;11.570;2022-12-20T05:24:21;98120.69;;;2.05;89.34
1371;BME280;14306;49.942;11.570;2022-12-20T05:27:35;98102.81;;;1.83;89.92
1371;BME280;14306;49.942;11.570;2022-12-20T05:30:44;98105.84;;;1.98;89.98
1371;BME280;14306;49.942;11.570;2022-12-20T06:07:34;98099.53;;;2.27;88.55
1371;BME280;14306;49.942;11.570;2022-12-20T08:12:01;98071.78;;;2.16;88.51
1371;BME280;14306;49.942;11.570;2022-12-20T08:22:14;98055.78;;;2.05;89.06
1371;BME280;14306;49.942;11.570;2022-12-20T08:35:59;98053.03;;;2.51;86.41
1371;BME280;14306;49.942;11.570;2022-12-20T08:39:14;98034.25;;;2.34;86.33
1371;BME280;14306;49.942;11.570;2022-12-20T09:31:24;98032.31;;;2.86;86.77
1371;BME280;14306;49.942;11.570;2022-12-20T09:34:01;98045.66;;;2.69;86.32
1371;BME280;14306;49.942;11.570;2022-12-20T09:59:43;97996.63;;;2.64;85.93
1371;BME280;14306;49.942;11.570;2022-12-20T10:02:20;98019.59;;;2.76;86.08
1371;BME280;14306;49.942;11.570;2022-12-20T11:33:53;97880.50;;;3.26;85.21
1371;BME280;14306;49.942;11.570;2022-12-20T11:36:29;97890.00;;;3.17;85.90
1371;BME280;14306;49.942;11.570;2022-12-20T11:39:05;97883.28;;;2.81;86.64
1371;BME280;14306;49.942;11.570;2022-12-20T11:41:44;97901.78;;;3.16;86.41
1371;BME280;14306;49.942;11.570;2022-12-20T11:44:24;97890.31;;;3.20;86.34
1371;BME280;14306;49.942;11.570;2022-12-20T11:47:23;97861.56;;;2.94;86.79
1371;BME280;14306;49.942;11.570;2022-12-20T11:50:17;97854.47;;;2.83;86.36
1371;BME280;14306;49.942;11.570;2022-12-20T11:52:50;97880.69;;;3.03;86.65
1371;BME280;14306;49.942;11.570;2022-12-20T11:55:26;97863.03;;;3.18;86.45
1371;BME280;14306;49.942;11.570;2022-12-20T11:58:20;97856.97;;;3.06;85.55
1371;BME280;14306;49.942;11.570;2022-12-20T12:00:59;97856.31;;;3.16;86.65
1371;BME280;14306;49.942;11.570;2022-12-20T12:03:36;97841.53;;;3.13;86.04
1371;BME280;14306;49.942;11.570;2022-12-20T12:06:12;97884.25;;;3.25;86.00
1371;BME280;14306;49.942;11.570;2022-12-20T12:09:07;97849.88;;;3.17;85.73
1371;BME280;14306;49.942;11.570;2022-12-20T12:11:42;97883.81;;;3.33;86.10
1371;BME280;14306;49.942;11.570;2022-12-20T12:14:47;97856.81;;;3.34;85.80
1371;BME280;14306;49.942;11.570;2022-12-20T12:17:25;97834.69;;;3.01;86.66
1371;BME280;14306;49.942;11.570;2022-12-20T12:20:08;97793.66;;;2.95;86.67
1371;BME280;14306;49.942;11.570;2022-12-20T12:22:48;97797.94;;;3.13;86.56
1371;BME280;14306;49.942;11.570;2022-12-20T12:25:21;97813.59;;;3.04;87.20
1371;BME280;14306;49.942;11.570;2022-12-20T12:27:50;97806.75;;;3.13;87.15
1371;BME280;14306;49.942;11.570;2022-12-20T12:30:20;97796.03;;;3.13;86.77
1371;BME280;14306;49.942;11.570;2022-12-20T12:32:56;97792.50;;;3.08;87.01
1371;BME280;14306;49.942;11.570;2022-12-20T12:35:47;97817.53;;;3.18;86.33
1371;BME280;14306;49.942;11.570;2022-12-20T12:38:37;97808.19;;;3.21;86.39
1371;BME280;14306;49.942;11.570;2022-12-20T12:41:25;97805.19;;;3.17;86.50
1371;BME280;14306;49.942;11.570;2022-12-20T12:44:04;97790.69;;;3.13;86.63
1371;BME280;14306;49.942;11.570;2022-12-20T12:47:02;97780.31;;;3.17;86.20
1371;BME280;14306;49.942;11.570;2022-12-20T12:49:49;97799.47;;;3.09;86.78
1371;BME280;14306;49.942;11.570;2022-12-20T13:14:48;97792.97;;;3.21;87.12
1371;BME280;14306;49.942;11.570;2022-12-20T13:17:45;97787.69;;;3.26;86.91
1371;BME280;14306;49.942;11.570;2022-12-20T13:20:21;97756.34;;;3.05;87.13
1371;BME280;14306;49.942;11.570;2022-12-20T13:23:13;97783.31;;;3.20;86.88
1371;BME280;14306;49.942;11.570;2022-12-20T13:25:44;97792.16;;;3.21;86.94
1371;BME280;14306;49.942;11.570;2022-12-20T13:28:44;97774.47;;;3.20;87.17
1371;BME280;14306;49.942;11.570;2022-12-20T13:31:32;97783.53;;;3.19;86.64
1371;BME280;14306;49.942;11.570;2022-12-20T13:34:01;97772.06;;;3.18;87.42
1371;BME280;14306;49.942;11.570;2022-12-20T13:36:33;97774.28;;;3.26;86.74
1371;BME280;14306;49.942;11.570;2022-12-20T13:39:32;97775.59;;;3.24;86.79
1371;BME280;14306;49.942;11.570;2022-12-20T13:42:18;97767.44;;;3.35;86.33
1371;BME280;14306;49.942;11.570;2022-12-20T13:44:51;97756.44;;;3.32;86.61
1371;BME280;14306;49.942;11.570;2022-12-20T13:47:41;97758.19;;;3.43;86.33
1371;BME280;14306;49.942;11.570;2022-12-20T13:50:34;97757.78;;;3.56;86.04
1371;BME280;14306;49.942;11.570;2022-12-20T13:53:15;97755.13;;;3.34;86.26
1371;BME280;14306;49.942;11.570;2022-12-20T13:55:44;97758.03;;;3.54;85.97
1371;BME280;14306;49.942;11.570;2022-12-20T13:58:15;97763.84;;;3.46;85.05
1371;BME280;14306;49.942;11.570;2022-12-20T14:00:45;97758.09;;;3.38;86.01
1371;BME280;14306;49.942;11.570;2022-12-20T14:03:22;97764.56;;;3.20;86.23
1371;BME280;14306;49.942;11.570;2022-12-20T14:05:56;97761.78;;;3.32;85.82
1371;BME280;14306;49.942;11.570;2022-12-20T14:08:26;97772.25;;;3.33;86.63
1371;BME280;14306;49.942;11.570;2022-12-20T14:11:08;97770.06;;;3.30;86.95
1371;BME280;14306;49.942;11.570;2022-12-20T14:13:36;97770.31;;;3.29;86.26
1371;BME280;14306;49.942;11.570;2022-12-20T14:16:10;97772.78;;;3.35;85.88
1371;BME280;14306;49.942;11.570;2022-12-20T14:18:47;97776.16;;;3.26;86.01
1371;BME280;14306;49.942;11.570;2022-12-20T14:21:17;97767.50;;;3.40;86.25
1371;BME280;14306;49.942;11.570;2022-12-20T14:23:47;97765.88;;;3.39;85.95
1371;BME280;14306;49.942;11.570;2022-12-20T14:26:21;97767.63;;;3.50;85.50
1371;BME280;14306;49.942;11.570;2022-12-20T14:28:53;97767.50;;;3.40;86.22
1371;BME280;14306;49.942;11.570;2022-12-20T14:31:24;97779.78;;;3.58;84.85
1371;BME280;14306;49.942;11.570;2022-12-20T14:34:05;97782.88;;;3.50;85.14
1371;BME280;14306;49.942;11.570;2022-12-20T14:36:41;97778.34;;;3.50;85.83
1371;BME280;14306;49.942;11.570;2022-12-20T14:39:22;97780.88;;;3.40;85.73
1371;BME280;14306;49.942;11.570;2022-12-20T14:41:56;97771.31;;;3.44;85.62
1371;BME280;14306;49.942;11.570;2022-12-20T14:44:27;97775.03;;;3.43;86.42
1371;BME280;14306;49.942;11.570;2022-12-20T14:46:57;97765.00;;;3.34;85.74
1371;BME280;14306;49.942;11.570;2022-12-20T14:49:28;97752.22;;;3.36;86.39
1371;BME280;14306;49.942;11.570;2022-12-20T14:52:06;97743.41;;;3.40;85.73
1371;BME280;14306;49.942;11.570;2022-12-20T14:54:42;97735.91;;;3.37;86.22
1371;BME280;14306;49.942;11.570;2022-12-20T14:57:38;97733.28;;;3.42;85.98
1371;BME280;14306;49.942;11.570;2022-12-20T15:00:14;97732.59;;;3.52;86.00
1371;BME280;14306;49.942;11.570;2022-12-20T15:02:48;97720.25;;;3.51;85.26
1371;BME280;14306;49.942;11.570;2022-12-20T15:05:46;97716.53;;;3.52;85.45
1371;BME280;14306;49.942;11.570;2022-12-20T15:08:17;97716.19;;;3.70;84.74
1371;BME280;14306;49.942;11.570;2022-12-20T15:10:49;97712.31;;;3.61;84.93
1371;BME280;14306;49.942;11.570;2022-12-20T15:13:21;97711.03;;;3.42;85.55
1371;BME280;14306;49.942;11.570;2022-12-20T15:15:49;97707.63;;;3.46;85.27
1371;BME280;14306;49.942;11.570;2022-12-20T15:18:19;97701.56;;;3.56;85.29
1371;BME280;14306;49.942;11.570;2022-12-20T15:20:58;97693.75;;;3.49;85.66
1371;BME280;14306;49.942;11.570;2022-12-20T15:23:28;97698.22;;;3.70;84.91
1371;BME280;14306;49.942;11.570;2022-12-20T15:25:57;97714.88;;;3.72;84.57
1371;BME280;14306;49.942;11.570;2022-12-20T15:28:26;97723.75;;;3.78;84.04
1371;BME280;14306;49.942;11.570;2022-12-20T15:30:54;97719.41;;;3.72;84.21
1371;BME280;14306;49.942;11.570;2022-12-20T15:33:25;97728.63;;;3.59;84.58
1371;BME280;14306;49.942;11.570;2022-12-20T15:35:58;97718.44;;;3.56;84.90
1371;BME280;14306;49.942;11.570;2022-12-20T15:38:27;97717.19;;;3.64;84.23
1371;BME280;14306;49.942;11.570;2022-12-20T15:41:18;97713.97;;;3.62;84.51
1371;BME280;14306;49.942;11.570;2022-12-20T15:43:49;97713.34;;;3.55;84.99
1371;BME280;14306;49.942;11.570;2022-12-20T15:46:18;97706.22;;;3.65;83.83
1371;BME280;14306;49.942;11.570;2022-12-20T15:48:47;97700.66;;;3.72;84.21
1371;BME280;14306;49.942;11.570;2022-12-20T15:51:22;97713.53;;;3.75;84.25
1371;BME280;14306;49.942;11.570;2022-12-20T15:53:51;97699.66;;;3.78;84.87
1371;BME280;14306;49.942;11.570;2022-12-20T15:56:21;97703.94;;;3.79;84.55
1371;BME280;14306;49.942;11.570;2022-12-20T15:58:50;97706.00;;;3.72;84.50
1371;BME280;14306;49.942;11.570;2022-12-20T16:01:20;97712.56;;;3.81;84.30
1371;BME280;14306;49.942;11.570;2022-12-20T16:03:49;97696.66;;;3.74;85.12
1371;BME280;14306;49.942;11.570;2022-12-20T16:06:19;97696.63;;;3.96;84.77
1371;BME280;14306;49.942;11.570;2022-12-20T16:08:48;97686.44;;;3.98;84.16
1371;BME280;14306;49.942;11.570;2022-12-20T16:11:20;97687.59;;;4.07;83.17
1371;BME280;14306;49.942;11.570;2022-12-20T16:13:48;97688.00;;;3.94;83.47
1371;BME280;14306;49.942;11.570;2022-12-20T16:16:19;97697.28;;;3.81;83.64
1371;BME280;14306;49.942;11.570;2022-12-20T16:18:47;97691.66;;;3.83;84.63
1371;BME280;14306;49.942;11.570;2022-12-20T16:21:20;97681.41;;;3.75;84.02
1371;BME280;14306;49.942;11.570;2022-12-20T16:23:49;97676.56;;;3.72;84.20
1371;BME280;14306;49.942;11.570;2022-12-20T16:26:19;97669.94;;;3.79;84.09
1371;BME280;14306;49.942;11.570;2022-12-20T16:28:48;97657.13;;;3.55;84.32
1371;BME280;14306;49.942;11.570;2022-12-20T16:31:22;97701.47;;;3.72;84.26
1371;BME280;14306;49.942;11.570;2022-12-20T16:33:51;97702.34;;;3.78;83.66
1371;BME280;14306;49.942;11.570;2022-12-20T16:36:21;97698.75;;;3.67;83.97
1371;BME280;14306;49.942;11.570;2022-12-20T16:38:51;97694.06;;;3.79;84.53
1371;BME280;14306;49.942;11.570;2022-12-20T16:41:21;97681.41;;;3.75;83.35
1371;BME280;14306;49.942;11.570;2022-12-20T16:43:50;97698.56;;;3.74;83.81
1371;BME280;14306;49.942;11.570;2022-12-20T16:46:20;97706.97;;;3.87;83.89
1371;BME280;14306;49.942;11.570;2022-12-20T16:48:49;97713.84;;;3.78;83.63
1371;BME280;14306;49.942;11.570;2022-12-20T16:51:25;97715.72;;;3.78;83.78
1371;BME280;14306;49.942;11.570;2022-12-20T16:53:54;97704.41;;;3.71;84.45
1371;BME280;14306;49.942;11.570;2022-12-20T16:56:43;97692.94;;;3.75;83.92
1371;BME280;14306;49.942;11.570;2022-12-20T16:59:13;97688.63;;;3.74;84.15
1371;BME280;14306;49.942;11.570;2022-12-20T17:01:47;97687.03;;;3.73;84.03
1371;BME280;14306;49.942;11.570;2022-12-20T17:04:18;97681.41;;;3.75;84.30
1371;BME280;14306;49.942;11.570;2022-12-20T17:06:47;97686.66;;;3.65;83.87
1371;BME280;14306;49.942;11.570;2022-12-20T17:09:16;97681.59;;;3.63;84.33
1371;BME280;14306;49.942;11.570;2022-12-20T17:12:07;97671.19;;;3.72;83.88
1371;BME280;14306;49.942;11.570;2022-12-20T17:14:42;97663.13;;;3.67;83.62
1371;BME280;14306;49.942;11.570;2022-12-20T17:17:11;97646.56;;;3.70;84.50
1371;BME280;14306;49.942;11.570;2022-12-20T17:19:39;97658.00;;;3.60;84.31
1371;BME280;14306;49.942;11.570;2022-12-20T17:22:10;97658.28;;;3.64;84.21
1371;BME280;14306;49.942;11.570;2022-12-20T17:24:49;97646.56;;;3.70;83.90
1371;BME280;14306;49.942;11.570;2022-12-20T17:27:18;97626.03;;;3.80;83.67
1371;BME280;14306;49.942;11.570;2022-12-20T17:29:47;97617.97;;;3.75;83.86
1371;BME280;14306;49.942;11.570;2022-12-20T17:32:18;97627.03;;;4.06;82.96
1371;BME280;14306;49.942;11.570;2022-12-20T17:34:48;97617.91;;;4.02;83.96
1371;BME280;14306;49.942;11.570;2022-12-20T17:37:19;97627.34;;;4.09;83.25
1371;BME280;14306;49.942;11.570;2022-12-20T17:39:48;97632.63;;;4.04;82.68
1371;BME280;14306;49.942;11.570;2022-12-20T17:42:16;97634.59;;;4.14;82.97
1371;BME280;14306;49.942;11.570;2022-12-20T17:44:48;97641.50;;;4.05;82.88
1371;BME280;14306;49.942;11.570;2022-12-20T17:47:17;97635.00;;;3.96;82.64
1371;BME280;14306;49.942;11.570;2022-12-20T17:49:47;97635.28;;;3.99;82.40
1371;BME280;14306;49.942;11.570;2022-12-20T17:55:00;97638.22;;;3.98;82.63
1371;BME280;14306;49.942;11.570;2022-12-20T17:57:28;97650.81;;;3.97;82.60
1371;BME280;14306;49.942;11.570;2022-12-20T17:59:57;97630.66;;;3.90;83.10
1371;BME280;14306;49.942;11.570;2022-12-20T18:02:25;97645.91;;;3.89;83.05
1371;BME280;14306;49.942;11.570;2022-12-20T18:04:55;97642.50;;;3.99;82.89
1371;BME280;14306;49.942;11.570;2022-12-20T18:07:23;97636.88;;;3.95;82.92
1371;BME280;14306;49.942;11.570;2022-12-20T18:09:52;97643.28;;;3.94;82.35
1371;BME280;14306;49.942;11.570;2022-12-20T18:12:25;97664.50;;;4.33;82.73
1371;BME280;14306;49.942;11.570;2022-12-20T18:15:03;97674.38;;;4.27;81.94
1371;BME280;14306;49.942;11.570;2022-12-20T18:17:33;97674.47;;;4.42;81.34
1371;BME280;14306;49.942;11.570;2022-12-20T18:20:02;97652.34;;;4.20;82.37
1371;BME280;14306;49.942;11.570;2022-12-20T18:22:31;97657.00;;;4.03;82.05
1371;BME280;14306;49.942;11.570;2022-12-20T18:25:01;97677.53;;;4.19;81.43
1371;BME280;14306;49.942;11.570;2022-12-20T18:27:39;97681.56;;;4.22;82.14
1371;BME280;14306;49.942;11.570;2022-12-20T18:30:10;97698.13;;;4.18;81.87
1371;BME280;14306;49.942;11.570;2022-12-20T18:32:39;97690.25;;;4.07;81.87
1371;BME280;14306;49.942;11.570;2022-12-20T18:35:08;97708.44;;;4.00;82.40
1371;BME280;14306;49.942;11.570;2022-12-20T18:37:38;97707.34;;;3.96;83.16
1371;BME280;14306;49.942;11.570;2022-12-20T18:40:07;97712.97;;;3.99;83.38
1371;BME280;14306;49.942;11.570;2022-12-20T18:42:37;97710.75;;;3.91;83.43
1371;BME280;14306;49.942;11.570;2022-12-20T18:45:06;97693.09;;;3.90;83.32
1371;BME280;14306;49.942;11.570;2022-12-20T18:47:36;97696.06;;;3.94;83.17
1371;BME280;14306;49.942;11.570;2022-12-20T18:50:07;97690.59;;;3.84;83.34
1371;BME280;14306;49.942;11.570;2022-12-20T18:52:37;97691.81;;;3.98;83.56
1371;BME280;14306;49.942;11.570;2022-12-20T18:55:11;97688.31;;;3.97;83.09
1371;BME280;14306;49.942;11.570;2022-12-20T18:57:41;97673.22;;;3.86;83.63
1371;BME280;14306;49.942;11.570;2022-12-20T19:00:10;97665.19;;;3.86;84.15
1371;BME280;14306;49.942;11.570;2022-12-20T19:02:39;97647.97;;;3.77;83.04
1371;BME280;14306;49.942;11.570;2022-12-20T19:05:08;97641.03;;;3.81;83.63
1371;BME280;14306;49.942;11.570;2022-12-20T19:07:36;97641.53;;;3.78;84.12
1371;BME280;14306;49.942;11.570;2022-12-20T19:10:05;97626.91;;;3.91;83.75
1371;BME280;14306;49.942;11.570;2022-12-20T19:15:33;97621.63;;;3.96;83.15
1371;BME280;14306;49.942;11.570;2022-12-20T19:18:04;97626.44;;;3.99;83.42
1371;BME280;14306;49.942;11.570;2022-12-20T19:20:33;97607.06;;;3.87;82.66
1371;BME280;14306;49.942;11.570;2022-12-20T19:23:02;97588.66;;;3.95;83.33
1371;BME280;14306;49.942;11.570;2022-12-20T19:25:32;97588.56;;;3.85;83.28
1371;BME280;14306;49.942;11.570;2022-12-20T19:28:01;97584.78;;;3.81;83.28
1371;BME280;14306;49.942;11.570;2022-12-20T19:30:30;97582.91;;;3.77;83.85
1371;BME280;14306;49.942;11.570;2022-12-20T19:33:00;97572.19;;;3.77;83.49
1371;BME280;14306;49.942;11.570;2022-12-20T19:35:29;97572.59;;;4.00;83.47
1371;BME280;14306;49.942;11.570;2022-12-20T19:38:18;97574.53;;;4.10;81.79
1371;BME280;14306;49.942;11.570;2022-12-20T19:40:51;97603.97;;;4.00;83.25
1371;BME280;14306;49.942;11.570;2022-12-20T19:43:20;97604.50;;;4.02;82.20
1371;BME280;14306;49.942;11.570;2022-12-20T19:45:49;97602.00;;;3.90;83.04
1371;BME280;14306;49.942;11.570;2022-12-20T19:48:19;97594.16;;;3.79;82.76